sensor_id;sensor_type;location;lat;lon;timestamp;P1;durP1;ratioP1;P2;durP2;ratioP2
68353;SDS011;55274;43.060;25.618;2023-08-01T00:00:31;23.98;;;12.38;;
68353;SDS011;55274;43.060;25.618;2023-08-01T00:02:58;19.45;;;11.30;;
68353;SDS011;55274;43.060;25.618;2023-08-01T00:05:24;18.83;;;11.65;;
68353;SDS011;55274;43.060;25.618;2023-08-01T00:07:51;21.52;;;12.45;;
68353;SDS011;55274;43.060;25.618;2023-08-01T00:10:17;22.75;;;11.93;;
68353;SDS011;55274;43.060;25.618;2023-08-01T00:12:43;19.40;;;12.15;;
68353;SDS011;55274;43.060;25.618;2023-08-01T00:15:09;21.38;;;11.63;;
68353;SDS011;55274;43.060;25.618;2023-08-01T00:17:35;25.10;;;12.05;;
68353;SDS011;55274;43.060;25.618;2023-08-01T00:20:01;23.50;;;11.85;;
68353;SDS011;55274;43.060;25.618;2023-08-01T00:22:27;20.25;;;12.55;;
68353;SDS011;55274;43.060;25.618;2023-08-01T00:24:54;27.17;;;13.95;;
68353;SDS011;55274;43.060;25.618;2023-08-01T00:27:20;23.90;;;12.77;;
68353;SDS011;55274;43.060;25.618;2023-08-01T00:29:45;22.42;;;12.57;;
68353;SDS011;55274;43.060;25.618;2023-08-01T00:32:11;26.52;;;11.77;;
68353;SDS011;55274;43.060;25.618;2023-08-01T00:34:37;21.10;;;12.70;;
68353;SDS011;55274;43.060;25.618;2023-08-01T00:37:03;20.80;;;12.32;;
68353;SDS011;55274;43.060;25.618;2023-08-01T00:39:29;25.30;;;12.70;;
68353;SDS011;55274;43.060;25.618;2023-08-01T00:41:55;22.42;;;13.50;;
68353;SDS011;55274;43.060;25.618;2023-08-01T00:44:21;24.40;;;13.27;;
68353;SDS011;55274;43.060;25.618;2023-08-01T00:46:47;30.13;;;13.57;;
68353;SDS011;55274;43.060;25.618;2023-08-01T00:49:13;21.40;;;13.27;;
68353;SDS011;55274;43.060;25.618;2023-08-01T00:51:40;26.63;;;12.45;;
68353;SDS011;55274;43.060;25.618;2023-08-01T00:54:06;65.50;;;15.15;;
68353;SDS011;55274;43.060;25.618;2023-08-01T00:56:32;50.42;;;15.85;;
68353;SDS011;55274;43.060;25.618;2023-08-01T00:58:58;31.20;;;14.40;;
68353;SDS011;55274;43.060;25.618;2023-08-01T01:01:24;33.83;;;16.05;;
68353;SDS011;55274;43.060;25.618;2023-08-01T01:03:50;40.05;;;18.45;;
68353;SDS011;55274;43.060;25.618;2023-08-01T01:07:02;30.23;;;17.05;;
68353;SDS011;55274;43.060;25.618;2023-08-01T01:09:23;30.83;;;17.10;;
68353;SDS011;55274;43.060;25.618;2023-08-01T01:11:49;41.08;;;19.35;;
68353;SDS011;55274;43.060;25.618;2023-08-01T01:14:15;46.53;;;17.67;;
68353;SDS011;55274;43.060;25.618;2023-08-01T01:16:40;43.38;;;18.75;;
68353;SDS011;55274;43.060;25.618;2023-08-01T01:19:07;48.83;;;18.52;;
68353;SDS011;55274;43.060;25.618;2023-08-01T01:21:40;83.45;;;21.98;;
68353;SDS011;55274;43.060;25.618;2023-08-01T01:24:08;66.43;;;20.38;;
68353;SDS011;55274;43.060;25.618;2023-08-01T01:26:36;46.38;;;19.13;;
68353;SDS011;55274;43.060;25.618;2023-08-01T01:29:03;39.42;;;18.25;;
68353;SDS011;55274;43.060;25.618;2023-08-01T01:31:31;23.02;;;14.30;;
68353;SDS011;55274;43.060;25.618;2023-08-01T01:33:59;37.45;;;15.27;;
68353;SDS011;55274;43.060;25.618;2023-08-01T01:36:27;20.73;;;14.40;;
68353;SDS011;55274;43.060;25.618;2023-08-01T01:38:52;39.60;;;16.02;;
68353;SDS011;55274;43.060;25.618;2023-08-01T01:41:18;24.55;;;14.13;;
68353;SDS011;55274;43.060;25.618;2023-08-01T01:43:44;25.27;;;14.35;;
68353;SDS011;55274;43.060;25.618;2023-08-01T01:46:10;27.77;;;14.75;;
68353;SDS011;55274;43.060;25.618;2023-08-01T01:48:35;22.38;;;14.10;;
68353;SDS011;55274;43.060;25.618;2023-08-01T01:51:01;22.98;;;14.43;;
68353;SDS011;55274;43.060;25.618;2023-08-01T01:53:27;28.63;;;15.23;;
68353;SDS011;55274;43.060;25.618;2023-08-01T01:55:53;21.67;;;13.52;;
68353;SDS011;55274;43.060;25.618;2023-08-01T01:58:18;34.22;;;14.65;;
68353;SDS011;55274;43.060;25.618;2023-08-01T02:00:44;25.73;;;13.70;;
68353;SDS011;55274;43.060;25.618;2023-08-01T02:03:10;22.73;;;14.52;;
68353;SDS011;55274;43.060;25.618;2023-08-01T02:05:39;21.52;;;13.85;;
68353;SDS011;55274;43.060;25.618;2023-08-01T02:08:05;25.52;;;13.13;;
68353;SDS011;55274;43.060;25.618;2023-08-01T02:10:31;23.60;;;13.68;;
68353;SDS011;55274;43.060;25.618;2023-08-01T02:12:56;22.55;;;12.65;;
68353;SDS011;55274;43.060;25.618;2023-08-01T02:15:22;19.13;;;12.77;;
68353;SDS011;55274;43.060;25.618;2023-08-01T02:17:48;18.63;;;12.30;;
68353;SDS011;55274;43.060;25.618;2023-08-01T02:20:14;22.95;;;13.15;;
68353;SDS011;55274;43.060;25.618;2023-08-01T02:22:39;22.65;;;12.32;;
68353;SDS011;55274;43.060;25.618;2023-08-01T02:25:05;21.60;;;12.77;;
68353;SDS011;55274;43.060;25.618;2023-08-01T02:27:31;19.15;;;12.07;;
68353;SDS011;55274;43.060;25.618;2023-08-01T02:29:57;21.02;;;12.43;;
68353;SDS011;55274;43.060;25.618;2023-08-01T02:32:23;20.05;;;12.85;;
68353;SDS011;55274;43.060;25.618;2023-08-01T02:34:48;21.23;;;12.25;;
68353;SDS011;55274;43.060;25.618;2023-08-01T02:37:14;26.23;;;12.45;;
68353;SDS011;55274;43.060;25.618;2023-08-01T02:39:40;18.73;;;11.63;;
68353;SDS011;55274;43.060;25.618;2023-08-01T02:42:06;17.48;;;11.23;;
68353;SDS011;55274;43.060;25.618;2023-08-01T02:44:31;18.13;;;11.38;;
68353;SDS011;55274;43.060;25.618;2023-08-01T02:46:57;22.45;;;12.98;;
68353;SDS011;55274;43.060;25.618;2023-08-01T02:49:23;19.33;;;11.57;;
68353;SDS011;55274;43.060;25.618;2023-08-01T02:51:49;18.95;;;11.93;;
68353;SDS011;55274;43.060;25.618;2023-08-01T02:54:14;17.67;;;11.90;;
68353;SDS011;55274;43.060;25.618;2023-08-01T02:56:40;22.67;;;11.80;;
68353;SDS011;55274;43.060;25.618;2023-08-01T02:59:06;18.65;;;12.20;;
68353;SDS011;55274;43.060;25.618;2023-08-01T03:01:37;18.70;;;11.77;;
68353;SDS011;55274;43.060;25.618;2023-08-01T03:04:03;22.17;;;12.80;;
68353;SDS011;55274;43.060;25.618;2023-08-01T03:06:33;39.45;;;14.80;;
68353;SDS011;55274;43.060;25.618;2023-08-01T03:08:59;28.67;;;16.85;;
68353;SDS011;55274;43.060;25.618;2023-08-01T03:11:25;28.77;;;15.88;;
68353;SDS011;55274;43.060;25.618;2023-08-01T03:13:51;29.70;;;14.40;;
68353;SDS011;55274;43.060;25.618;2023-08-01T03:16:17;43.50;;;14.70;;
68353;SDS011;55274;43.060;25.618;2023-08-01T03:18:43;29.95;;;15.02;;
68353;SDS011;55274;43.060;25.618;2023-08-01T03:21:09;37.95;;;13.85;;
68353;SDS011;55274;43.060;25.618;2023-08-01T03:23:35;25.52;;;14.38;;
68353;SDS011;55274;43.060;25.618;2023-08-01T03:26:01;37.67;;;14.02;;
68353;SDS011;55274;43.060;25.618;2023-08-01T03:28:27;23.13;;;13.32;;
68353;SDS011;55274;43.060;25.618;2023-08-01T03:30:53;32.25;;;13.65;;
68353;SDS011;55274;43.060;25.618;2023-08-01T03:33:19;24.52;;;11.65;;
68353;SDS011;55274;43.060;25.618;2023-08-01T03:35:46;22.45;;;12.77;;
68353;SDS011;55274;43.060;25.618;2023-08-01T03:38:12;27.15;;;12.75;;
68353;SDS011;55274;43.060;25.618;2023-08-01T03:40:38;18.95;;;12.43;;
68353;SDS011;55274;43.060;25.618;2023-08-01T03:43:04;19.85;;;12.43;;
68353;SDS011;55274;43.060;25.618;2023-08-01T03:45:31;22.90;;;11.57;;
68353;SDS011;55274;43.060;25.618;2023-08-01T03:47:57;22.67;;;12.77;;
68353;SDS011;55274;43.060;25.618;2023-08-01T03:50:22;23.95;;;12.85;;
68353;SDS011;55274;43.060;25.618;2023-08-01T03:52:49;27.95;;;12.98;;
68353;SDS011;55274;43.060;25.618;2023-08-01T03:55:16;43.78;;;13.70;;
68353;SDS011;55274;43.060;25.618;2023-08-01T03:57:42;30.45;;;13.48;;
68353;SDS011;55274;43.060;25.618;2023-08-01T04:00:08;28.38;;;14.15;;
68353;SDS011;55274;43.060;25.618;2023-08-01T04:02:43;32.90;;;16.70;;
68353;SDS011;55274;43.060;25.618;2023-08-01T04:05:09;50.15;;;23.10;;
68353;SDS011;55274;43.060;25.618;2023-08-01T04:07:36;37.88;;;19.25;;
68353;SDS011;55274;43.060;25.618;2023-08-01T04:10:02;32.28;;;18.15;;
68353;SDS011;55274;43.060;25.618;2023-08-01T04:12:29;33.08;;;17.63;;
68353;SDS011;55274;43.060;25.618;2023-08-01T04:14:59;34.00;;;16.88;;
68353;SDS011;55274;43.060;25.618;2023-08-01T04:17:25;47.55;;;18.92;;
68353;SDS011;55274;43.060;25.618;2023-08-01T04:19:50;38.83;;;18.80;;
68353;SDS011;55274;43.060;25.618;2023-08-01T04:22:16;37.85;;;19.63;;
68353;SDS011;55274;43.060;25.618;2023-08-01T04:24:42;31.88;;;18.58;;
68353;SDS011;55274;43.060;25.618;2023-08-01T04:27:08;27.98;;;16.10;;
68353;SDS011;55274;43.060;25.618;2023-08-01T04:29:34;27.65;;;15.23;;
68353;SDS011;55274;43.060;25.618;2023-08-01T04:32:00;27.15;;;16.00;;
68353;SDS011;55274;43.060;25.618;2023-08-01T04:34:25;27.67;;;15.45;;
68353;SDS011;55274;43.060;25.618;2023-08-01T04:36:51;23.88;;;11.88;;
68353;SDS011;55274;43.060;25.618;2023-08-01T04:39:17;21.65;;;13.52;;
68353;SDS011;55274;43.060;25.618;2023-08-01T04:41:43;20.00;;;11.65;;
68353;SDS011;55274;43.060;25.618;2023-08-01T04:44:09;24.05;;;11.95;;
68353;SDS011;55274;43.060;25.618;2023-08-01T04:46:34;44.95;;;13.50;;
68353;SDS011;55274;43.060;25.618;2023-08-01T04:49:00;26.67;;;11.55;;
68353;SDS011;55274;43.060;25.618;2023-08-01T04:51:26;16.40;;;10.50;;
68353;SDS011;55274;43.060;25.618;2023-08-01T04:53:52;16.95;;;10.25;;
68353;SDS011;55274;43.060;25.618;2023-08-01T04:56:18;13.68;;;9.93;;
68353;SDS011;55274;43.060;25.618;2023-08-01T04:58:44;13.13;;;8.52;;
68353;SDS011;55274;43.060;25.618;2023-08-01T05:01:09;12.32;;;8.25;;
68353;SDS011;55274;43.060;25.618;2023-08-01T05:03:35;13.00;;;8.43;;
68353;SDS011;55274;43.060;25.618;2023-08-01T05:06:01;16.60;;;9.60;;
68353;SDS011;55274;43.060;25.618;2023-08-01T05:08:27;23.42;;;10.48;;
68353;SDS011;55274;43.060;25.618;2023-08-01T05:10:52;17.08;;;11.20;;
68353;SDS011;55274;43.060;25.618;2023-08-01T05:13:18;21.88;;;12.25;;
68353;SDS011;55274;43.060;25.618;2023-08-01T05:15:44;20.13;;;12.77;;
68353;SDS011;55274;43.060;25.618;2023-08-01T05:18:15;22.98;;;11.80;;
68353;SDS011;55274;43.060;25.618;2023-08-01T05:20:41;19.58;;;9.93;;
68353;SDS011;55274;43.060;25.618;2023-08-01T05:23:07;17.63;;;9.90;;
68353;SDS011;55274;43.060;25.618;2023-08-01T05:25:33;21.52;;;10.95;;
68353;SDS011;55274;43.060;25.618;2023-08-01T05:27:59;20.45;;;9.77;;
68353;SDS011;55274;43.060;25.618;2023-08-01T05:30:24;22.88;;;10.57;;
68353;SDS011;55274;43.060;25.618;2023-08-01T05:32:50;17.50;;;9.18;;
68353;SDS011;55274;43.060;25.618;2023-08-01T05:35:16;16.02;;;7.57;;
68353;SDS011;55274;43.060;25.618;2023-08-01T05:37:42;12.55;;;7.20;;
68353;SDS011;55274;43.060;25.618;2023-08-01T05:40:08;8.60;;;6.53;;
68353;SDS011;55274;43.060;25.618;2023-08-01T05:42:34;9.93;;;5.55;;
68353;SDS011;55274;43.060;25.618;2023-08-01T05:45:00;8.88;;;5.95;;
68353;SDS011;55274;43.060;25.618;2023-08-01T05:47:26;7.25;;;5.35;;
68353;SDS011;55274;43.060;25.618;2023-08-01T05:49:52;11.60;;;6.47;;
68353;SDS011;55274;43.060;25.618;2023-08-01T05:52:18;12.43;;;6.40;;
68353;SDS011;55274;43.060;25.618;2023-08-01T05:54:43;11.35;;;5.50;;
68353;SDS011;55274;43.060;25.618;2023-08-01T05:57:09;7.85;;;5.65;;
68353;SDS011;55274;43.060;25.618;2023-08-01T05:59:35;6.35;;;4.30;;
68353;SDS011;55274;43.060;25.618;2023-08-01T06:02:02;5.72;;;3.58;;
68353;SDS011;55274;43.060;25.618;2023-08-01T06:04:27;5.22;;;3.60;;
68353;SDS011;55274;43.060;25.618;2023-08-01T06:06:53;4.43;;;3.15;;
68353;SDS011;55274;43.060;25.618;2023-08-01T06:09:19;4.90;;;3.47;;
68353;SDS011;55274;43.060;25.618;2023-08-01T06:11:45;6.60;;;3.45;;
68353;SDS011;55274;43.060;25.618;2023-08-01T06:14:12;7.78;;;3.15;;
68353;SDS011;55274;43.060;25.618;2023-08-01T06:16:37;6.03;;;3.42;;
68353;SDS011;55274;43.060;25.618;2023-08-01T06:19:03;13.80;;;4.28;;
68353;SDS011;55274;43.060;25.618;2023-08-01T06:21:29;9.95;;;3.20;;
68353;SDS011;55274;43.060;25.618;2023-08-01T06:23:55;7.13;;;3.22;;
68353;SDS011;55274;43.060;25.618;2023-08-01T06:26:20;5.72;;;2.47;;
68353;SDS011;55274;43.060;25.618;2023-08-01T06:28:46;4.80;;;2.70;;
68353;SDS011;55274;43.060;25.618;2023-08-01T06:31:12;5.50;;;2.72;;
68353;SDS011;55274;43.060;25.618;2023-08-01T06:33:38;4.85;;;2.47;;
68353;SDS011;55274;43.060;25.618;2023-08-01T06:36:04;5.28;;;2.72;;
68353;SDS011;55274;43.060;25.618;2023-08-01T06:38:30;7.18;;;2.40;;
68353;SDS011;55274;43.060;25.618;2023-08-01T06:40:56;3.80;;;2.38;;
68353;SDS011;55274;43.060;25.618;2023-08-01T06:43:22;8.35;;;3.17;;
68353;SDS011;55274;43.060;25.618;2023-08-01T06:45:49;10.95;;;3.60;;
68353;SDS011;55274;43.060;25.618;2023-08-01T06:48:15;12.35;;;3.08;;
68353;SDS011;55274;43.060;25.618;2023-08-01T06:50:41;16.02;;;4.15;;
68353;SDS011;55274;43.060;25.618;2023-08-01T06:53:07;5.22;;;2.42;;
68353;SDS011;55274;43.060;25.618;2023-08-01T06:55:33;5.32;;;2.72;;
68353;SDS011;55274;43.060;25.618;2023-08-01T06:57:59;11.23;;;2.80;;
68353;SDS011;55274;43.060;25.618;2023-08-01T07:00:25;6.40;;;2.50;;
68353;SDS011;55274;43.060;25.618;2023-08-01T07:02:51;3.35;;;2.22;;
68353;SDS011;55274;43.060;25.618;2023-08-01T07:05:17;6.25;;;3.15;;
68353;SDS011;55274;43.060;25.618;2023-08-01T07:07:43;6.18;;;3.47;;
68353;SDS011;55274;43.060;25.618;2023-08-01T07:10:09;6.68;;;3.22;;
68353;SDS011;55274;43.060;25.618;2023-08-01T07:12:34;5.97;;;3.35;;
68353;SDS011;55274;43.060;25.618;2023-08-01T07:15:00;5.80;;;3.20;;
68353;SDS011;55274;43.060;25.618;2023-08-01T07:17:26;6.20;;;2.45;;
68353;SDS011;55274;43.060;25.618;2023-08-01T07:19:52;4.15;;;2.63;;
68353;SDS011;55274;43.060;25.618;2023-08-01T07:22:19;7.95;;;3.95;;
68353;SDS011;55274;43.060;25.618;2023-08-01T07:24:45;10.00;;;3.65;;
68353;SDS011;55274;43.060;25.618;2023-08-01T07:27:11;7.15;;;4.05;;
68353;SDS011;55274;43.060;25.618;2023-08-01T07:29:37;13.25;;;4.57;;
68353;SDS011;55274;43.060;25.618;2023-08-01T07:32:03;5.00;;;3.20;;
68353;SDS011;55274;43.060;25.618;2023-08-01T07:34:29;8.43;;;4.22;;
68353;SDS011;55274;43.060;25.618;2023-08-01T07:36:55;4.43;;;2.80;;
68353;SDS011;55274;43.060;25.618;2023-08-01T07:39:21;6.22;;;3.92;;
68353;SDS011;55274;43.060;25.618;2023-08-01T07:41:47;7.35;;;3.40;;
68353;SDS011;55274;43.060;25.618;2023-08-01T07:44:12;5.00;;;2.88;;
68353;SDS011;55274;43.060;25.618;2023-08-01T07:46:38;5.15;;;3.15;;
68353;SDS011;55274;43.060;25.618;2023-08-01T07:49:04;5.43;;;2.78;;
68353;SDS011;55274;43.060;25.618;2023-08-01T07:51:30;4.57;;;2.67;;
68353;SDS011;55274;43.060;25.618;2023-08-01T07:53:56;3.60;;;2.70;;
68353;SDS011;55274;43.060;25.618;2023-08-01T07:56:22;4.15;;;2.80;;
68353;SDS011;55274;43.060;25.618;2023-08-01T07:58:48;6.00;;;2.80;;
68353;SDS011;55274;43.060;25.618;2023-08-01T08:01:14;4.53;;;3.10;;
68353;SDS011;55274;43.060;25.618;2023-08-01T08:03:39;5.95;;;2.58;;
68353;SDS011;55274;43.060;25.618;2023-08-01T08:06:05;5.68;;;2.60;;
68353;SDS011;55274;43.060;25.618;2023-08-01T08:08:31;22.10;;;3.65;;
68353;SDS011;55274;43.060;25.618;2023-08-01T08:10:58;4.32;;;2.35;;
68353;SDS011;55274;43.060;25.618;2023-08-01T08:13:26;5.93;;;2.60;;
68353;SDS011;55274;43.060;25.618;2023-08-01T08:15:52;9.32;;;2.40;;
68353;SDS011;55274;43.060;25.618;2023-08-01T08:18:20;8.35;;;2.70;;
68353;SDS011;55274;43.060;25.618;2023-08-01T08:20:45;9.02;;;2.97;;
68353;SDS011;55274;43.060;25.618;2023-08-01T08:23:11;5.72;;;2.60;;
68353;SDS011;55274;43.060;25.618;2023-08-01T08:25:41;5.05;;;2.17;;
68353;SDS011;55274;43.060;25.618;2023-08-01T08:28:07;6.80;;;2.58;;
68353;SDS011;55274;43.060;25.618;2023-08-01T08:30:33;5.07;;;2.30;;
68353;SDS011;55274;43.060;25.618;2023-08-01T08:33:00;4.15;;;2.78;;
68353;SDS011;55274;43.060;25.618;2023-08-01T08:35:29;4.38;;;2.40;;
68353;SDS011;55274;43.060;25.618;2023-08-01T08:37:58;8.70;;;2.92;;
68353;SDS011;55274;43.060;25.618;2023-08-01T08:40:25;4.13;;;2.30;;
68353;SDS011;55274;43.060;25.618;2023-08-01T08:42:52;6.95;;;2.40;;
68353;SDS011;55274;43.060;25.618;2023-08-01T08:45:19;5.07;;;2.47;;
68353;SDS011;55274;43.060;25.618;2023-08-01T08:47:47;22.73;;;3.42;;
68353;SDS011;55274;43.060;25.618;2023-08-01T08:50:21;12.82;;;2.72;;
68353;SDS011;55274;43.060;25.618;2023-08-01T08:52:48;3.60;;;2.17;;
68353;SDS011;55274;43.060;25.618;2023-08-01T08:55:14;8.70;;;2.15;;
68353;SDS011;55274;43.060;25.618;2023-08-01T08:57:40;3.95;;;2.08;;
68353;SDS011;55274;43.060;25.618;2023-08-01T09:00:07;6.35;;;2.28;;
68353;SDS011;55274;43.060;25.618;2023-08-01T09:02:34;5.70;;;2.30;;
68353;SDS011;55274;43.060;25.618;2023-08-01T09:16:07;13.23;;;2.22;;
68353;SDS011;55274;43.060;25.618;2023-08-01T09:18:34;8.82;;;2.10;;
68353;SDS011;55274;43.060;25.618;2023-08-01T09:21:11;2.53;;;1.50;;
68353;SDS011;55274;43.060;25.618;2023-08-01T09:23:36;4.03;;;1.65;;
68353;SDS011;55274;43.060;25.618;2023-08-01T09:26:11;3.20;;;1.95;;
68353;SDS011;55274;43.060;25.618;2023-08-01T09:28:41;2.13;;;1.60;;
68353;SDS011;55274;43.060;25.618;2023-08-01T09:31:07;2.70;;;1.80;;
68353;SDS011;55274;43.060;25.618;2023-08-01T09:33:39;2.92;;;1.70;;
68353;SDS011;55274;43.060;25.618;2023-08-01T09:36:06;2.97;;;1.80;;
68353;SDS011;55274;43.060;25.618;2023-08-01T09:38:36;4.22;;;1.88;;
68353;SDS011;55274;43.060;25.618;2023-08-01T09:41:03;7.70;;;2.22;;
68353;SDS011;55274;43.060;25.618;2023-08-01T09:43:33;42.45;;;4.45;;
68353;SDS011;55274;43.060;25.618;2023-08-01T09:46:00;11.77;;;2.55;;
68353;SDS011;55274;43.060;25.618;2023-08-01T09:48:27;4.47;;;1.85;;
68353;SDS011;55274;43.060;25.618;2023-08-01T09:51:04;5.45;;;1.92;;
68353;SDS011;55274;43.060;25.618;2023-08-01T09:53:32;12.93;;;1.88;;
68353;SDS011;55274;43.060;25.618;2023-08-01T09:56:02;4.32;;;2.15;;
68353;SDS011;55274;43.060;25.618;2023-08-01T09:58:32;4.93;;;1.55;;
68353;SDS011;55274;43.060;25.618;2023-08-01T10:01:01;27.63;;;3.53;;
68353;SDS011;55274;43.060;25.618;2023-08-01T10:03:28;5.95;;;1.40;;
68353;SDS011;55274;43.060;25.618;2023-08-01T10:05:54;8.55;;;2.35;;
68353;SDS011;55274;43.060;25.618;2023-08-01T10:08:21;7.80;;;1.58;;
68353;SDS011;55274;43.060;25.618;2023-08-01T10:10:47;3.45;;;1.88;;
68353;SDS011;55274;43.060;25.618;2023-08-01T10:13:13;4.88;;;1.67;;
68353;SDS011;55274;43.060;25.618;2023-08-01T10:15:40;1.92;;;1.33;;
68353;SDS011;55274;43.060;25.618;2023-08-01T10:18:07;2.70;;;1.42;;
68353;SDS011;55274;43.060;25.618;2023-08-01T10:20:35;3.00;;;1.60;;
68353;SDS011;55274;43.060;25.618;2023-08-01T10:23:02;2.70;;;1.70;;
68353;SDS011;55274;43.060;25.618;2023-08-01T10:25:30;2.35;;;1.25;;
68353;SDS011;55274;43.060;25.618;2023-08-01T10:28:00;2.75;;;1.48;;
68353;SDS011;55274;43.060;25.618;2023-08-01T10:30:27;11.55;;;1.63;;
68353;SDS011;55274;43.060;25.618;2023-08-01T10:32:57;7.72;;;1.70;;
68353;SDS011;55274;43.060;25.618;2023-08-01T10:35:36;2.25;;;1.40;;
68353;SDS011;55274;43.060;25.618;2023-08-01T10:38:04;21.58;;;5.32;;
68353;SDS011;55274;43.060;25.618;2023-08-01T10:40:38;5.40;;;2.05;;
68353;SDS011;55274;43.060;25.618;2023-08-01T10:43:19;6.90;;;2.10;;
68353;SDS011;55274;43.060;25.618;2023-08-01T10:45:48;2.67;;;1.60;;
68353;SDS011;55274;43.060;25.618;2023-08-01T10:48:28;2.25;;;1.50;;
68353;SDS011;55274;43.060;25.618;2023-08-01T10:50:54;2.33;;;1.52;;
68353;SDS011;55274;43.060;25.618;2023-08-01T10:53:22;2.35;;;1.40;;
68353;SDS011;55274;43.060;25.618;2023-08-01T10:55:48;4.75;;;1.65;;
68353;SDS011;55274;43.060;25.618;2023-08-01T10:58:14;4.22;;;1.65;;
68353;SDS011;55274;43.060;25.618;2023-08-01T11:00:43;2.53;;;1.17;;
68353;SDS011;55274;43.060;25.618;2023-08-01T11:03:09;3.60;;;1.63;;
68353;SDS011;55274;43.060;25.618;2023-08-01T11:05:35;5.63;;;1.63;;
68353;SDS011;55274;43.060;25.618;2023-08-01T11:08:02;2.00;;;1.60;;
68353;SDS011;55274;43.060;25.618;2023-08-01T11:10:29;3.90;;;1.60;;
68353;SDS011;55274;43.060;25.618;2023-08-01T11:12:56;8.65;;;2.35;;
68353;SDS011;55274;43.060;25.618;2023-08-01T11:15:22;2.65;;;1.23;;
68353;SDS011;55274;43.060;25.618;2023-08-01T11:17:49;1.55;;;1.25;;
68353;SDS011;55274;43.060;25.618;2023-08-01T11:20:19;2.45;;;1.50;;
68353;SDS011;55274;43.060;25.618;2023-08-01T11:22:56;2.47;;;1.45;;
68353;SDS011;55274;43.060;25.618;2023-08-01T11:28:01;2.53;;;1.50;;
68353;SDS011;55274;43.060;25.618;2023-08-01T11:30:37;7.55;;;1.42;;
68353;SDS011;55274;43.060;25.618;2023-08-01T11:33:19;2.60;;;1.63;;
68353;SDS011;55274;43.060;25.618;2023-08-01T11:35:46;3.15;;;1.58;;
68353;SDS011;55274;43.060;25.618;2023-08-01T11:38:28;3.80;;;1.60;;
68353;SDS011;55274;43.060;25.618;2023-08-01T11:40:56;4.13;;;1.80;;
68353;SDS011;55274;43.060;25.618;2023-08-01T11:43:23;5.63;;;1.42;;
68353;SDS011;55274;43.060;25.618;2023-08-01T11:45:55;2.70;;;1.52;;
68353;SDS011;55274;43.060;25.618;2023-08-01T11:48:24;7.15;;;3.05;;
68353;SDS011;55274;43.060;25.618;2023-08-01T11:50:56;4.00;;;1.60;;
68353;SDS011;55274;43.060;25.618;2023-08-01T11:53:23;2.00;;;1.58;;
68353;SDS011;55274;43.060;25.618;2023-08-01T11:55:49;2.85;;;1.42;;
68353;SDS011;55274;43.060;25.618;2023-08-01T11:58:40;3.20;;;1.52;;
68353;SDS011;55274;43.060;25.618;2023-08-01T12:03:48;18.20;;;2.92;;
68353;SDS011;55274;43.060;25.618;2023-08-01T12:06:15;3.30;;;1.30;;
68353;SDS011;55274;43.060;25.618;2023-08-01T12:08:43;2.97;;;1.70;;
68353;SDS011;55274;43.060;25.618;2023-08-01T12:11:19;2.70;;;1.42;;
68353;SDS011;55274;43.060;25.618;2023-08-01T12:13:47;3.03;;;1.30;;
68353;SDS011;55274;43.060;25.618;2023-08-01T12:16:13;7.03;;;1.70;;
68353;SDS011;55274;43.060;25.618;2023-08-01T12:18:42;5.13;;;1.10;;
68353;SDS011;55274;43.060;25.618;2023-08-01T12:21:09;2.55;;;1.40;;
68353;SDS011;55274;43.060;25.618;2023-08-01T12:23:36;2.00;;;1.10;;
68353;SDS011;55274;43.060;25.618;2023-08-01T12:26:01;2.70;;;1.55;;
68353;SDS011;55274;43.060;25.618;2023-08-01T12:28:27;3.05;;;1.40;;
68353;SDS011;55274;43.060;25.618;2023-08-01T12:30:53;2.58;;;1.50;;
68353;SDS011;55274;43.060;25.618;2023-08-01T12:33:19;3.03;;;1.60;;
68353;SDS011;55274;43.060;25.618;2023-08-01T12:35:45;3.88;;;1.27;;
68353;SDS011;55274;43.060;25.618;2023-08-01T12:38:11;3.53;;;1.40;;
68353;SDS011;55274;43.060;25.618;2023-08-01T12:40:36;2.60;;;1.70;;
68353;SDS011;55274;43.060;25.618;2023-08-01T12:43:02;2.50;;;1.45;;
68353;SDS011;55274;43.060;25.618;2023-08-01T12:45:28;3.13;;;1.40;;
68353;SDS011;55274;43.060;25.618;2023-08-01T12:47:54;2.85;;;1.58;;
68353;SDS011;55274;43.060;25.618;2023-08-01T12:50:19;4.80;;;1.70;;
68353;SDS011;55274;43.060;25.618;2023-08-01T12:52:45;3.58;;;1.60;;
68353;SDS011;55274;43.060;25.618;2023-08-01T12:55:11;2.75;;;1.63;;
68353;SDS011;55274;43.060;25.618;2023-08-01T12:57:37;3.38;;;1.45;;
68353;SDS011;55274;43.060;25.618;2023-08-01T13:00:03;3.72;;;1.60;;
68353;SDS011;55274;43.060;25.618;2023-08-01T13:02:29;3.97;;;1.50;;
68353;SDS011;55274;43.060;25.618;2023-08-01T13:04:55;3.28;;;1.23;;
68353;SDS011;55274;43.060;25.618;2023-08-01T13:07:20;3.55;;;1.55;;
68353;SDS011;55274;43.060;25.618;2023-08-01T13:09:46;8.63;;;1.75;;
68353;SDS011;55274;43.060;25.618;2023-08-01T13:12:12;1.92;;;1.38;;
68353;SDS011;55274;43.060;25.618;2023-08-01T13:14:38;2.40;;;1.38;;
68353;SDS011;55274;43.060;25.618;2023-08-01T13:17:03;3.03;;;1.40;;
68353;SDS011;55274;43.060;25.618;2023-08-01T13:19:30;1.65;;;1.38;;
68353;SDS011;55274;43.060;25.618;2023-08-01T13:21:56;4.63;;;1.85;;
68353;SDS011;55274;43.060;25.618;2023-08-01T13:24:21;1.67;;;1.48;;
68353;SDS011;55274;43.060;25.618;2023-08-01T13:26:47;10.63;;;1.95;;
68353;SDS011;55274;43.060;25.618;2023-08-01T13:29:13;3.65;;;1.63;;
68353;SDS011;55274;43.060;25.618;2023-08-01T13:31:39;1.70;;;1.40;;
68353;SDS011;55274;43.060;25.618;2023-08-01T13:34:05;3.05;;;1.55;;
68353;SDS011;55274;43.060;25.618;2023-08-01T13:36:30;3.13;;;1.48;;
68353;SDS011;55274;43.060;25.618;2023-08-01T13:38:56;6.30;;;1.88;;
68353;SDS011;55274;43.060;25.618;2023-08-01T13:41:22;2.85;;;1.48;;
68353;SDS011;55274;43.060;25.618;2023-08-01T13:43:48;3.55;;;1.40;;
68353;SDS011;55274;43.060;25.618;2023-08-01T13:46:14;4.10;;;1.35;;
68353;SDS011;55274;43.060;25.618;2023-08-01T13:48:42;3.65;;;1.60;;
68353;SDS011;55274;43.060;25.618;2023-08-01T13:51:12;3.30;;;1.63;;
68353;SDS011;55274;43.060;25.618;2023-08-01T13:53:38;3.15;;;1.55;;
68353;SDS011;55274;43.060;25.618;2023-08-01T13:56:08;3.15;;;1.50;;
68353;SDS011;55274;43.060;25.618;2023-08-01T13:58:37;4.78;;;1.63;;
68353;SDS011;55274;43.060;25.618;2023-08-01T14:01:07;5.25;;;1.63;;
68353;SDS011;55274;43.060;25.618;2023-08-01T14:03:34;19.15;;;2.58;;
68353;SDS011;55274;43.060;25.618;2023-08-01T14:06:13;1.92;;;1.40;;
68353;SDS011;55274;43.060;25.618;2023-08-01T14:08:40;5.93;;;1.70;;
68353;SDS011;55274;43.060;25.618;2023-08-01T14:11:07;4.50;;;1.83;;
68353;SDS011;55274;43.060;25.618;2023-08-01T14:13:34;2.13;;;1.45;;
68353;SDS011;55274;43.060;25.618;2023-08-01T14:16:01;5.15;;;1.60;;
68353;SDS011;55274;43.060;25.618;2023-08-01T14:18:30;3.55;;;1.50;;
68353;SDS011;55274;43.060;25.618;2023-08-01T14:20:56;2.40;;;1.63;;
68353;SDS011;55274;43.060;25.618;2023-08-01T14:23:22;3.85;;;1.65;;
68353;SDS011;55274;43.060;25.618;2023-08-01T14:25:48;1.90;;;1.40;;
68353;SDS011;55274;43.060;25.618;2023-08-01T14:28:13;4.80;;;1.60;;
68353;SDS011;55274;43.060;25.618;2023-08-01T14:30:39;2.78;;;1.73;;
68353;SDS011;55274;43.060;25.618;2023-08-01T14:33:06;7.43;;;1.90;;
68353;SDS011;55274;43.060;25.618;2023-08-01T14:35:36;3.92;;;1.60;;
68353;SDS011;55274;43.060;25.618;2023-08-01T14:38:02;4.93;;;1.50;;